sensor_id;sensor_type;location;lat;lon;timestamp;P1;durP1;ratioP1;P2;durP2;ratioP2
67965;SDS011;54749;47.850;9.002;2023-04-25T00:00:22;7.88;;;3.55;;
67965;SDS011;54749;47.850;9.002;2023-04-25T00:03:09;5.68;;;2.50;;
67965;SDS011;54749;47.850;9.002;2023-04-25T00:05:37;8.07;;;2.20;;
67965;SDS011;54749;47.850;9.002;2023-04-25T00:08:04;6.00;;;2.40;;
67965;SDS011;54749;47.850;9.002;2023-04-25T00:10:32;7.90;;;2.97;;
67965;SDS011;54749;47.850;9.002;2023-04-25T00:12:59;7.78;;;2.70;;
67965;SDS011;54749;47.850;9.002;2023-04-25T00:15:29;4.90;;;2.20;;
67965;SDS011;54749;47.850;9.002;2023-04-25T00:17:57;5.35;;;2.10;;
67965;SDS011;54749;47.850;9.002;2023-04-25T00:20:24;7.15;;;2.38;;
67965;SDS011;54749;47.850;9.002;2023-04-25T00:22:51;5.33;;;2.50;;
67965;SDS011;54749;47.850;9.002;2023-04-25T00:25:22;5.15;;;2.00;;
67965;SDS011;54749;47.850;9.002;2023-04-25T00:27:50;5.22;;;1.90;;
67965;SDS011;54749;47.850;9.002;2023-04-25T00:30:17;7.03;;;1.80;;
67965;SDS011;54749;47.850;9.002;2023-04-25T00:32:44;5.03;;;1.60;;
67965;SDS011;54749;47.850;9.002;2023-04-25T00:35:13;5.17;;;1.60;;
67965;SDS011;54749;47.850;9.002;2023-04-25T00:37:40;5.10;;;1.60;;
67965;SDS011;54749;47.850;9.002;2023-04-25T00:40:07;4.80;;;1.52;;
67965;SDS011;54749;47.850;9.002;2023-04-25T00:42:35;4.70;;;1.70;;
67965;SDS011;54749;47.850;9.002;2023-04-25T00:45:04;8.80;;;1.80;;
67965;SDS011;54749;47.850;9.002;2023-04-25T00:47:32;4.90;;;1.40;;
67965;SDS011;54749;47.850;9.002;2023-04-25T00:50:00;3.80;;;1.50;;
67965;SDS011;54749;47.850;9.002;2023-04-25T00:52:27;5.50;;;1.70;;
67965;SDS011;54749;47.850;9.002;2023-04-25T00:54:54;7.57;;;1.73;;
67965;SDS011;54749;47.850;9.002;2023-04-25T00:57:21;4.40;;;1.40;;
67965;SDS011;54749;47.850;9.002;2023-04-25T00:59:49;3.67;;;1.40;;
67965;SDS011;54749;47.850;9.002;2023-04-25T01:02:17;4.88;;;1.73;;
67965;SDS011;54749;47.850;9.002;2023-04-25T01:04:45;5.55;;;2.20;;
67965;SDS011;54749;47.850;9.002;2023-04-25T01:07:14;4.28;;;1.58;;
67965;SDS011;54749;47.850;9.002;2023-04-25T01:09:42;3.88;;;1.50;;
67965;SDS011;54749;47.850;9.002;2023-04-25T01:12:09;3.97;;;1.50;;
67965;SDS011;54749;47.850;9.002;2023-04-25T01:14:36;4.35;;;1.70;;
67965;SDS011;54749;47.850;9.002;2023-04-25T01:17:04;4.60;;;1.80;;
67965;SDS011;54749;47.850;9.002;2023-04-25T01:19:32;5.03;;;2.10;;
67965;SDS011;54749;47.850;9.002;2023-04-25T01:21:59;6.22;;;2.00;;
67965;SDS011;54749;47.850;9.002;2023-04-25T01:24:30;4.97;;;1.80;;
67965;SDS011;54749;47.850;9.002;2023-04-25T01:26:59;4.35;;;1.90;;
67965;SDS011;54749;47.850;9.002;2023-04-25T01:29:28;5.55;;;2.17;;
67965;SDS011;54749;47.850;9.002;2023-04-25T01:31:55;4.75;;;2.17;;
67965;SDS011;54749;47.850;9.002;2023-04-25T01:34:25;5.68;;;2.17;;
67965;SDS011;54749;47.850;9.002;2023-04-25T01:36:52;5.80;;;2.20;;
67965;SDS011;54749;47.850;9.002;2023-04-25T01:39:21;7.38;;;2.80;;
67965;SDS011;54749;47.850;9.002;2023-04-25T01:41:48;5.63;;;2.60;;
67965;SDS011;54749;47.850;9.002;2023-04-25T01:44:16;7.88;;;2.85;;
67965;SDS011;54749;47.850;9.002;2023-04-25T01:46:43;7.30;;;2.90;;
67965;SDS011;54749;47.850;9.002;2023-04-25T01:49:10;5.67;;;2.50;;
67965;SDS011;54749;47.850;9.002;2023-04-25T01:51:39;7.95;;;2.47;;
67965;SDS011;54749;47.850;9.002;2023-04-25T01:54:07;5.32;;;2.40;;
67965;SDS011;54749;47.850;9.002;2023-04-25T01:56:36;8.27;;;3.20;;
67965;SDS011;54749;47.850;9.002;2023-04-25T01:59:06;8.45;;;3.22;;
67965;SDS011;54749;47.850;9.002;2023-04-25T02:02:03;8.80;;;3.50;;
67965;SDS011;54749;47.850;9.002;2023-04-25T02:04:32;7.03;;;2.63;;
67965;SDS011;54749;47.850;9.002;2023-04-25T02:07:00;6.20;;;2.50;;
67965;SDS011;54749;47.850;9.002;2023-04-25T02:09:37;6.15;;;2.30;;
67965;SDS011;54749;47.850;9.002;2023-04-25T02:12:05;5.18;;;2.35;;
67965;SDS011;54749;47.850;9.002;2023-04-25T02:14:54;6.87;;;2.10;;
67965;SDS011;54749;47.850;9.002;2023-04-25T02:17:46;4.72;;;1.75;;
67965;SDS011;54749;47.850;9.002;2023-04-25T02:20:14;5.00;;;1.73;;
67965;SDS011;54749;47.850;9.002;2023-04-25T02:22:42;5.10;;;2.00;;
67965;SDS011;54749;47.850;9.002;2023-04-25T02:25:10;8.90;;;2.97;;
67965;SDS011;54749;47.850;9.002;2023-04-25T02:27:38;8.47;;;2.40;;
67965;SDS011;54749;47.850;9.002;2023-04-25T02:30:07;6.18;;;2.00;;
67965;SDS011;54749;47.850;9.002;2023-04-25T02:32:34;4.75;;;2.00;;
67965;SDS011;54749;47.850;9.002;2023-04-25T02:35:02;4.38;;;1.80;;
67965;SDS011;54749;47.850;9.002;2023-04-25T02:37:30;4.00;;;1.58;;
67965;SDS011;54749;47.850;9.002;2023-04-25T02:39:58;7.53;;;2.67;;
67965;SDS011;54749;47.850;9.002;2023-04-25T02:42:26;7.93;;;2.72;;
67965;SDS011;54749;47.850;9.002;2023-04-25T02:44:53;5.45;;;2.00;;
67965;SDS011;54749;47.850;9.002;2023-04-25T02:47:20;5.60;;;2.00;;
67965;SDS011;54749;47.850;9.002;2023-04-25T02:49:49;4.25;;;1.70;;
67965;SDS011;54749;47.850;9.002;2023-04-25T02:52:16;4.03;;;1.60;;
67965;SDS011;54749;47.850;9.002;2023-04-25T02:54:49;5.15;;;1.80;;
67965;SDS011;54749;47.850;9.002;2023-04-25T02:57:16;5.00;;;1.58;;
67965;SDS011;54749;47.850;9.002;2023-04-25T02:59:43;4.03;;;1.60;;
67965;SDS011;54749;47.850;9.002;2023-04-25T03:02:10;5.95;;;1.90;;
67965;SDS011;54749;47.850;9.002;2023-04-25T03:04:37;6.13;;;1.60;;
67965;SDS011;54749;47.850;9.002;2023-04-25T03:07:05;4.30;;;1.70;;
67965;SDS011;54749;47.850;9.002;2023-04-25T03:09:32;5.53;;;1.77;;
67965;SDS011;54749;47.850;9.002;2023-04-25T03:11:59;4.40;;;1.60;;
67965;SDS011;54749;47.850;9.002;2023-04-25T03:14:27;4.30;;;1.80;;
67965;SDS011;54749;47.850;9.002;2023-04-25T03:16:54;4.97;;;1.70;;
67965;SDS011;54749;47.850;9.002;2023-04-25T03:19:21;4.95;;;1.90;;
67965;SDS011;54749;47.850;9.002;2023-04-25T03:21:48;4.47;;;1.70;;
67965;SDS011;54749;47.850;9.002;2023-04-25T03:24:15;4.30;;;1.45;;
67965;SDS011;54749;47.850;9.002;2023-04-25T03:26:42;4.80;;;1.58;;
67965;SDS011;54749;47.850;9.002;2023-04-25T03:29:10;4.67;;;1.70;;
67965;SDS011;54749;47.850;9.002;2023-04-25T03:31:39;5.35;;;1.50;;
67965;SDS011;54749;47.850;9.002;2023-04-25T03:34:06;4.25;;;1.88;;
67965;SDS011;54749;47.850;9.002;2023-04-25T03:36:33;7.40;;;1.75;;
67965;SDS011;54749;47.850;9.002;2023-04-25T03:39:00;4.00;;;1.60;;
67965;SDS011;54749;47.850;9.002;2023-04-25T03:41:30;5.53;;;1.70;;
67965;SDS011;54749;47.850;9.002;2023-04-25T03:44:02;4.68;;;1.63;;
67965;SDS011;54749;47.850;9.002;2023-04-25T03:46:29;4.55;;;1.75;;
67965;SDS011;54749;47.850;9.002;2023-04-25T03:48:57;4.40;;;1.77;;
67965;SDS011;54749;47.850;9.002;2023-04-25T03:51:38;5.10;;;1.60;;
67965;SDS011;54749;47.850;9.002;2023-04-25T03:54:06;4.80;;;1.73;;
67965;SDS011;54749;47.850;9.002;2023-04-25T03:56:52;4.60;;;1.73;;
67965;SDS011;54749;47.850;9.002;2023-04-25T03:59:22;5.28;;;2.08;;
67965;SDS011;54749;47.850;9.002;2023-04-25T04:01:49;4.63;;;1.90;;
67965;SDS011;54749;47.850;9.002;2023-04-25T04:04:16;5.80;;;2.38;;
67965;SDS011;54749;47.850;9.002;2023-04-25T04:06:44;5.10;;;1.87;;
67965;SDS011;54749;47.850;9.002;2023-04-25T04:09:17;5.53;;;2.17;;
67965;SDS011;54749;47.850;9.002;2023-04-25T04:11:47;5.15;;;1.98;;
67965;SDS011;54749;47.850;9.002;2023-04-25T04:14:14;8.32;;;3.35;;
67965;SDS011;54749;47.850;9.002;2023-04-25T04:16:44;6.18;;;2.72;;
67965;SDS011;54749;47.850;9.002;2023-04-25T04:19:12;9.40;;;3.73;;
67965;SDS011;54749;47.850;9.002;2023-04-25T04:21:44;9.80;;;3.80;;
67965;SDS011;54749;47.850;9.002;2023-04-25T04:24:12;7.68;;;3.00;;
67965;SDS011;54749;47.850;9.002;2023-04-25T04:26:55;8.90;;;2.55;;
67965;SDS011;54749;47.850;9.002;2023-04-25T04:29:36;6.65;;;2.33;;
67965;SDS011;54749;47.850;9.002;2023-04-25T04:32:15;6.67;;;2.63;;
67965;SDS011;54749;47.850;9.002;2023-04-25T04:34:43;6.63;;;3.30;;
67965;SDS011;54749;47.850;9.002;2023-04-25T04:37:14;11.07;;;4.38;;
67965;SDS011;54749;47.850;9.002;2023-04-25T04:39:42;10.88;;;3.83;;
67965;SDS011;54749;47.850;9.002;2023-04-25T04:42:22;7.82;;;3.13;;
67965;SDS011;54749;47.850;9.002;2023-04-25T04:45:05;7.30;;;3.20;;
67965;SDS011;54749;47.850;9.002;2023-04-25T04:48:05;10.75;;;4.00;;
67965;SDS011;54749;47.850;9.002;2023-04-25T04:50:47;9.15;;;3.72;;
67965;SDS011;54749;47.850;9.002;2023-04-25T04:53:24;12.20;;;3.85;;
67965;SDS011;54749;47.850;9.002;2023-04-25T04:56:10;10.80;;;5.65;;
67965;SDS011;54749;47.850;9.002;2023-04-25T04:58:57;8.37;;;3.63;;
67965;SDS011;54749;47.850;9.002;2023-04-25T05:01:44;8.75;;;3.90;;
67965;SDS011;54749;47.850;9.002;2023-04-25T05:04:21;8.18;;;3.30;;
67965;SDS011;54749;47.850;9.002;2023-04-25T05:06:51;8.13;;;3.35;;
67965;SDS011;54749;47.850;9.002;2023-04-25T05:09:39;9.98;;;3.90;;
67965;SDS011;54749;47.850;9.002;2023-04-25T05:12:25;8.57;;;3.60;;
67965;SDS011;54749;47.850;9.002;2023-04-25T05:14:59;10.40;;;4.43;;
67965;SDS011;54749;47.850;9.002;2023-04-25T05:17:50;8.13;;;3.90;;
67965;SDS011;54749;47.850;9.002;2023-04-25T05:20:27;7.55;;;3.20;;
67965;SDS011;54749;47.850;9.002;2023-04-25T05:23:12;6.53;;;2.80;;
67965;SDS011;54749;47.850;9.002;2023-04-25T05:25:50;10.83;;;3.93;;
67965;SDS011;54749;47.850;9.002;2023-04-25T05:28:38;8.45;;;4.35;;
67965;SDS011;54749;47.850;9.002;2023-04-25T05:31:27;7.40;;;4.00;;
67965;SDS011;54749;47.850;9.002;2023-04-25T05:34:02;9.30;;;4.18;;
67965;SDS011;54749;47.850;9.002;2023-04-25T05:36:40;12.43;;;4.50;;
67965;SDS011;54749;47.850;9.002;2023-04-25T05:39:07;24.07;;;4.70;;
67965;SDS011;54749;47.850;9.002;2023-04-25T05:41:54;10.07;;;4.10;;
67965;SDS011;54749;47.850;9.002;2023-04-25T05:44:40;8.50;;;3.90;;
67965;SDS011;54749;47.850;9.002;2023-04-25T05:47:21;9.75;;;4.35;;
67965;SDS011;54749;47.850;9.002;2023-04-25T05:50:04;9.13;;;4.00;;
67965;SDS011;54749;47.850;9.002;2023-04-25T05:53:03;10.83;;;4.27;;
67965;SDS011;54749;47.850;9.002;2023-04-25T05:55:39;7.47;;;3.97;;
67965;SDS011;54749;47.850;9.002;2023-04-25T05:58:19;8.98;;;3.70;;
67965;SDS011;54749;47.850;9.002;2023-04-25T06:00:47;9.05;;;3.67;;
67965;SDS011;54749;47.850;9.002;2023-04-25T06:03:14;7.55;;;4.05;;
67965;SDS011;54749;47.850;9.002;2023-04-25T06:05:47;9.03;;;3.60;;
67965;SDS011;54749;47.850;9.002;2023-04-25T06:08:14;8.45;;;3.70;;
67965;SDS011;54749;47.850;9.002;2023-04-25T06:10:42;6.97;;;3.60;;
67965;SDS011;54749;47.850;9.002;2023-04-25T06:13:09;7.28;;;3.90;;
67965;SDS011;54749;47.850;9.002;2023-04-25T06:15:37;9.05;;;3.28;;
67965;SDS011;54749;47.850;9.002;2023-04-25T06:18:04;7.40;;;3.20;;
67965;SDS011;54749;47.850;9.002;2023-04-25T06:20:33;8.93;;;3.40;;
67965;SDS011;54749;47.850;9.002;2023-04-25T06:23:01;10.02;;;3.42;;
67965;SDS011;54749;47.850;9.002;2023-04-25T06:25:50;9.23;;;3.22;;
67965;SDS011;54749;47.850;9.002;2023-04-25T06:28:17;10.98;;;3.00;;
67965;SDS011;54749;47.850;9.002;2023-04-25T06:30:46;6.97;;;3.30;;
67965;SDS011;54749;47.850;9.002;2023-04-25T06:33:17;8.38;;;2.92;;
67965;SDS011;54749;47.850;9.002;2023-04-25T06:35:44;6.40;;;3.00;;
67965;SDS011;54749;47.850;9.002;2023-04-25T06:38:15;6.43;;;2.97;;
67965;SDS011;54749;47.850;9.002;2023-04-25T06:40:46;9.95;;;3.40;;
67965;SDS011;54749;47.850;9.002;2023-04-25T06:43:13;8.13;;;3.10;;
67965;SDS011;54749;47.850;9.002;2023-04-25T06:46:00;8.98;;;3.60;;
67965;SDS011;54749;47.850;9.002;2023-04-25T06:48:29;8.10;;;3.50;;
67965;SDS011;54749;47.850;9.002;2023-04-25T06:50:57;11.63;;;4.03;;
67965;SDS011;54749;47.850;9.002;2023-04-25T06:53:25;10.95;;;4.63;;
67965;SDS011;54749;47.850;9.002;2023-04-25T06:55:57;12.07;;;4.93;;
67965;SDS011;54749;47.850;9.002;2023-04-25T06:58:30;12.00;;;4.82;;
67965;SDS011;54749;47.850;9.002;2023-04-25T07:01:20;13.57;;;5.00;;
67965;SDS011;54749;47.850;9.002;2023-04-25T07:03:47;13.98;;;5.25;;
67965;SDS011;54749;47.850;9.002;2023-04-25T07:06:17;12.32;;;5.43;;
67965;SDS011;54749;47.850;9.002;2023-04-25T07:08:45;13.57;;;5.72;;
67965;SDS011;54749;47.850;9.002;2023-04-25T07:11:12;10.47;;;5.40;;
67965;SDS011;54749;47.850;9.002;2023-04-25T07:13:39;11.65;;;5.10;;
67965;SDS011;54749;47.850;9.002;2023-04-25T07:16:07;13.23;;;5.75;;
67965;SDS011;54749;47.850;9.002;2023-04-25T07:18:35;19.60;;;7.55;;
67965;SDS011;54749;47.850;9.002;2023-04-25T07:21:03;11.60;;;5.75;;
67965;SDS011;54749;47.850;9.002;2023-04-25T07:23:32;11.03;;;4.93;;
67965;SDS011;54749;47.850;9.002;2023-04-25T07:26:06;9.65;;;4.40;;
67965;SDS011;54749;47.850;9.002;2023-04-25T07:28:33;11.38;;;5.75;;
67965;SDS011;54749;47.850;9.002;2023-04-25T07:31:01;12.30;;;5.50;;
67965;SDS011;54749;47.850;9.002;2023-04-25T07:33:31;9.75;;;4.60;;
67965;SDS011;54749;47.850;9.002;2023-04-25T07:35:58;6.70;;;2.77;;
67965;SDS011;54749;47.850;9.002;2023-04-25T07:38:25;8.88;;;5.90;;
67965;SDS011;54749;47.850;9.002;2023-04-25T07:40:54;10.35;;;4.78;;
67965;SDS011;54749;47.850;9.002;2023-04-25T07:43:21;7.43;;;3.90;;
67965;SDS011;54749;47.850;9.002;2023-04-25T07:45:54;9.30;;;4.20;;
67965;SDS011;54749;47.850;9.002;2023-04-25T07:48:23;7.60;;;3.97;;
67965;SDS011;54749;47.850;9.002;2023-04-25T07:50:52;4.68;;;1.80;;
67965;SDS011;54749;47.850;9.002;2023-04-25T07:53:19;4.97;;;1.90;;
67965;SDS011;54749;47.850;9.002;2023-04-25T07:55:52;6.47;;;2.15;;
67965;SDS011;54749;47.850;9.002;2023-04-25T07:58:20;7.70;;;2.22;;
67965;SDS011;54749;47.850;9.002;2023-04-25T08:00:57;8.00;;;2.33;;
67965;SDS011;54749;47.850;9.002;2023-04-25T08:03:37;7.82;;;2.95;;
67965;SDS011;54749;47.850;9.002;2023-04-25T08:06:10;6.63;;;2.40;;
67965;SDS011;54749;47.850;9.002;2023-04-25T08:08:48;4.22;;;1.90;;
67965;SDS011;54749;47.850;9.002;2023-04-25T08:11:18;4.28;;;1.70;;
67965;SDS011;54749;47.850;9.002;2023-04-25T08:13:45;6.17;;;1.90;;
67965;SDS011;54749;47.850;9.002;2023-04-25T08:16:13;5.18;;;1.65;;
67965;SDS011;54749;47.850;9.002;2023-04-25T08:18:40;4.03;;;1.50;;
67965;SDS011;54749;47.850;9.002;2023-04-25T08:21:07;3.72;;;1.58;;
67965;SDS011;54749;47.850;9.002;2023-04-25T08:23:35;3.95;;;1.55;;
67965;SDS011;54749;47.850;9.002;2023-04-25T08:26:08;4.27;;;1.50;;
67965;SDS011;54749;47.850;9.002;2023-04-25T08:28:37;3.60;;;1.40;;
67965;SDS011;54749;47.850;9.002;2023-04-25T08:31:04;3.33;;;1.30;;
67965;SDS011;54749;47.850;9.002;2023-04-25T08:33:40;3.67;;;1.30;;
67965;SDS011;54749;47.850;9.002;2023-04-25T08:36:31;3.80;;;1.30;;
67965;SDS011;54749;47.850;9.002;2023-04-25T08:39:13;3.93;;;1.60;;
67965;SDS011;54749;47.850;9.002;2023-04-25T08:41:49;3.42;;;1.50;;
67965;SDS011;54749;47.850;9.002;2023-04-25T08:44:17;4.93;;;2.10;;
67965;SDS011;54749;47.850;9.002;2023-04-25T08:46:45;5.07;;;2.25;;
67965;SDS011;54749;47.850;9.002;2023-04-25T08:49:25;4.13;;;1.70;;
67965;SDS011;54749;47.850;9.002;2023-04-25T08:51:52;4.50;;;1.67;;
67965;SDS011;54749;47.850;9.002;2023-04-25T08:54:23;5.40;;;2.13;;
67965;SDS011;54749;47.850;9.002;2023-04-25T08:56:56;5.15;;;2.08;;
67965;SDS011;54749;47.850;9.002;2023-04-25T08:59:24;4.85;;;2.35;;
67965;SDS011;54749;47.850;9.002;2023-04-25T09:01:53;4.85;;;2.22;;
67965;SDS011;54749;47.850;9.002;2023-04-25T09:04:21;6.57;;;2.30;;
67965;SDS011;54749;47.850;9.002;2023-04-25T09:06:49;6.18;;;2.78;;
67965;SDS011;54749;47.850;9.002;2023-04-25T09:09:16;7.10;;;3.20;;
67965;SDS011;54749;47.850;9.002;2023-04-25T09:11:44;6.57;;;2.50;;
67965;SDS011;54749;47.850;9.002;2023-04-25T09:14:13;4.97;;;2.30;;
67965;SDS011;54749;47.850;9.002;2023-04-25T09:17:01;5.20;;;2.00;;
67965;SDS011;54749;47.850;9.002;2023-04-25T09:19:37;5.83;;;2.80;;
67965;SDS011;54749;47.850;9.002;2023-04-25T09:22:19;5.05;;;2.38;;
67965;SDS011;54749;47.850;9.002;2023-04-25T09:24:48;6.15;;;1.90;;
67965;SDS011;54749;47.850;9.002;2023-04-25T09:27:20;4.00;;;1.70;;
67965;SDS011;54749;47.850;9.002;2023-04-25T09:30:11;3.63;;;1.60;;
67965;SDS011;54749;47.850;9.002;2023-04-25T09:32:56;3.40;;;1.37;;
67965;SDS011;54749;47.850;9.002;2023-04-25T09:35:25;3.92;;;1.40;;
67965;SDS011;54749;47.850;9.002;2023-04-25T09:37:59;3.30;;;1.33;;
67965;SDS011;54749;47.850;9.002;2023-04-25T09:40:46;3.40;;;1.25;;
67965;SDS011;54749;47.850;9.002;2023-04-25T09:43:25;3.80;;;1.40;;
67965;SDS011;54749;47.850;9.002;2023-04-25T09:45:53;5.53;;;1.40;;
67965;SDS011;54749;47.850;9.002;2023-04-25T09:48:26;3.20;;;1.20;;
67965;SDS011;54749;47.850;9.002;2023-04-25T09:53:30;4.20;;;1.10;;
67965;SDS011;54749;47.850;9.002;2023-04-25T09:56:11;3.28;;;1.17;;
67965;SDS011;54749;47.850;9.002;2023-04-25T09:58:40;3.00;;;1.00;;
67965;SDS011;54749;47.850;9.002;2023-04-25T10:01:09;3.33;;;1.20;;
67965;SDS011;54749;47.850;9.002;2023-04-25T10:03:50;2.92;;;1.02;;
67965;SDS011;54749;47.850;9.002;2023-04-25T10:06:37;3.17;;;1.30;;
67965;SDS011;54749;47.850;9.002;2023-04-25T10:09:06;3.17;;;0.90;;
67965;SDS011;54749;47.850;9.002;2023-04-25T10:11:35;3.07;;;1.10;;
67965;SDS011;54749;47.850;9.002;2023-04-25T10:14:03;2.80;;;0.90;;
67965;SDS011;54749;47.850;9.002;2023-04-25T10:16:31;3.45;;;1.00;;
67965;SDS011;54749;47.850;9.002;2023-04-25T10:18:59;2.97;;;1.00;;
67965;SDS011;54749;47.850;9.002;2023-04-25T10:21:27;2.80;;;1.00;;
67965;SDS011;54749;47.850;9.002;2023-04-25T10:23:55;2.87;;;0.90;;
67965;SDS011;54749;47.850;9.002;2023-04-25T10:26:24;2.58;;;0.75;;
67965;SDS011;54749;47.850;9.002;2023-04-25T10:28:59;3.00;;;1.00;;
67965;SDS011;54749;47.850;9.002;2023-04-25T10:31:29;3.00;;;1.00;;
67965;SDS011;54749;47.850;9.002;2023-04-25T10:33:59;2.65;;;0.90;;
67965;SDS011;54749;47.850;9.002;2023-04-25T10:36:27;2.67;;;0.93;;
67965;SDS011;54749;47.850;9.002;2023-04-25T10:39:02;2.65;;;0.80;;
67965;SDS011;54749;47.850;9.002;2023-04-25T10:41:46;2.70;;;0.90;;
67965;SDS011;54749;47.850;9.002;2023-04-25T10:44:19;2.92;;;0.93;;
67965;SDS011;54749;47.850;9.002;2023-04-25T10:46:46;3.05;;;1.00;;
67965;SDS011;54749;47.850;9.002;2023-04-25T10:49:30;2.70;;;1.00;;
67965;SDS011;54749;47.850;9.002;2023-04-25T10:54:51;2.90;;;0.93;;
67965;SDS011;54749;47.850;9.002;2023-04-25T10:57:29;2.70;;;1.00;;
67965;SDS011;54749;47.850;9.002;2023-04-25T11:00:05;3.00;;;0.70;;
67965;SDS011;54749;47.850;9.002;2023-04-25T11:02:36;2.73;;;0.90;;
67965;SDS011;54749;47.850;9.002;2023-04-25T11:05:16;2.40;;;0.60;;
67965;SDS011;54749;47.850;9.002;2023-04-25T11:07:52;2.60;;;0.70;;
67965;SDS011;54749;47.850;9.002;2023-04-25T11:10:34;2.60;;;0.85;;
67965;SDS011;54749;47.850;9.002;2023-04-25T11:13:04;2.70;;;0.80;;
67965;SDS011;54749;47.850;9.002;2023-04-25T11:15:32;2.83;;;0.70;;
67965;SDS011;54749;47.850;9.002;2023-04-25T11:17:59;2.40;;;0.70;;
67965;SDS011;54749;47.850;9.002;2023-04-25T11:20:27;2.05;;;0.57;;
67965;SDS011;54749;47.850;9.002;2023-04-25T11:22:57;2.40;;;0.60;;
67965;SDS011;54749;47.850;9.002;2023-04-25T11:25:27;2.40;;;0.60;;
67965;SDS011;54749;47.850;9.002;2023-04-25T11:27:58;2.83;;;0.70;;
67965;SDS011;54749;47.850;9.002;2023-04-25T11:30:28;2.50;;;0.70;;
67965;SDS011;54749;47.850;9.002;2023-04-25T11:32:57;3.25;;;0.60;;
67965;SDS011;54749;47.850;9.002;2023-04-25T11:35:24;2.58;;;0.60;;
67965;SDS011;54749;47.850;9.002;2023-04-25T11:37:52;2.45;;;0.70;;
67965;SDS011;54749;47.850;9.002;2023-04-25T11:40:19;3.67;;;0.90;;
67965;SDS011;54749;47.850;9.002;2023-04-25T11:42:46;11.50;;;3.05;;
67965;SDS011;54749;47.850;9.002;2023-04-25T11:45:14;2.40;;;0.70;;
67965;SDS011;54749;47.850;9.002;2023-04-25T11:47:41;4.20;;;0.90;;
67965;SDS011;54749;47.850;9.002;2023-04-25T11:50:09;4.75;;;1.10;;
67965;SDS011;54749;47.850;9.002;2023-04-25T11:52:37;3.10;;;0.63;;
67965;SDS011;54749;47.850;9.002;2023-04-25T11:55:18;2.20;;;0.50;;
67965;SDS011;54749;47.850;9.002;2023-04-25T11:57:47;2.20;;;0.60;;
67965;SDS011;54749;47.850;9.002;2023-04-25T12:00:19;1.83;;;0.40;;
67965;SDS011;54749;47.850;9.002;2023-04-25T12:02:50;3.10;;;1.05;;
67965;SDS011;54749;47.850;9.002;2023-04-25T12:05:25;2.27;;;0.57;;
67965;SDS011;54749;47.850;9.002;2023-04-25T12:08:17;3.13;;;0.60;;
67965;SDS011;54749;47.850;9.002;2023-04-25T12:10:45;3.05;;;1.10;;
67965;SDS011;54749;47.850;9.002;2023-04-25T12:13:23;2.38;;;0.60;;
67965;SDS011;54749;47.850;9.002;2023-04-25T12:15:54;2.10;;;0.50;;
67965;SDS011;54749;47.850;9.002;2023-04-25T12:18:25;2.83;;;0.70;;
67965;SDS011;54749;47.850;9.002;2023-04-25T12:20:54;2.40;;;0.60;;
67965;SDS011;54749;47.850;9.002;2023-04-25T12:23:28;2.22;;;0.60;;
67965;SDS011;54749;47.850;9.002;2023-04-25T12:25:55;2.00;;;0.50;;
67965;SDS011;54749;47.850;9.002;2023-04-25T12:28:23;1.98;;;0.50;;
67965;SDS011;54749;47.850;9.002;2023-04-25T12:33:32;2.70;;;0.60;;
67965;SDS011;54749;47.850;9.002;2023-04-25T12:36:02;2.20;;;0.60;;
67965;SDS011;54749;47.850;9.002;2023-04-25T12:38:35;2.10;;;0.50;;
67965;SDS011;54749;47.850;9.002;2023-04-25T12:41:04;2.30;;;0.60;;
67965;SDS011;54749;47.850;9.002;2023-04-25T12:43:32;2.80;;;0.60;;
67965;SDS011;54749;47.850;9.002;2023-04-25T12:45:59;2.58;;;0.70;;
67965;SDS011;54749;47.850;9.002;2023-04-25T12:48:27;2.55;;;0.70;;
67965;SDS011;54749;47.850;9.002;2023-04-25T12:50:54;2.70;;;0.63;;
67965;SDS011;54749;47.850;9.002;2023-04-25T12:53:22;2.55;;;0.80;;
67965;SDS011;54749;47.850;9.002;2023-04-25T12:55:53;2.40;;;0.70;;
67965;SDS011;54749;47.850;9.002;2023-04-25T12:58:20;2.60;;;0.80;;
67965;SDS011;54749;47.850;9.002;2023-04-25T13:00:48;3.72;;;0.90;;
67965;SDS011;54749;47.850;9.002;2023-04-25T13:03:15;3.10;;;0.80;;
67965;SDS011;54749;47.850;9.002;2023-04-25T13:05:43;2.97;;;0.93;;
67965;SDS011;54749;47.850;9.002;2023-04-25T13:08:10;2.67;;;0.80;;
67965;SDS011;54749;47.850;9.002;2023-04-25T13:10:38;3.30;;;0.85;;
67965;SDS011;54749;47.850;9.002;2023-04-25T13:13:06;3.03;;;0.90;;
67965;SDS011;54749;47.850;9.002;2023-04-25T13:15:33;3.33;;;0.80;;
67965;SDS011;54749;47.850;9.002;2023-04-25T13:18:00;2.83;;;0.90;;
67965;SDS011;54749;47.850;9.002;2023-04-25T13:20:28;3.43;;;1.00;;
67965;SDS011;54749;47.850;9.002;2023-04-25T13:22:55;3.05;;;1.00;;
67965;SDS011;54749;47.850;9.002;2023-04-25T13:25:22;2.83;;;0.90;;
67965;SDS011;54749;47.850;9.002;2023-04-25T13:27:49;3.83;;;1.00;;
67965;SDS011;54749;47.850;9.002;2023-04-25T13:30:17;3.38;;;1.10;;
67965;SDS011;54749;47.850;9.002;2023-04-25T13:32:44;3.00;;;1.10;;
67965;SDS011;54749;47.850;9.002;2023-04-25T13:35:12;3.53;;;1.10;;
67965;SDS011;54749;47.850;9.002;2023-04-25T13:37:40;2.70;;;1.00;;
67965;SDS011;54749;47.850;9.002;2023-04-25T13:40:09;4.47;;;1.00;;
67965;SDS011;54749;47.850;9.002;2023-04-25T13:42:37;2.70;;;1.00;;
67965;SDS011;54749;47.850;9.002;2023-04-25T13:45:06;2.75;;;0.90;;
67965;SDS011;54749;47.850;9.002;2023-04-25T13:47:34;2.80;;;0.90;;
67965;SDS011;54749;47.850;9.002;2023-04-25T13:50:02;3.05;;;0.95;;
67965;SDS011;54749;47.850;9.002;2023-04-25T13:52:32;2.80;;;1.00;;
67965;SDS011;54749;47.850;9.002;2023-04-25T13:55:00;3.30;;;1.00;;
67965;SDS011;54749;47.850;9.002;2023-04-25T13:57:33;4.90;;;1.00;;
67965;SDS011;54749;47.850;9.002;2023-04-25T14:00:01;3.23;;;1.00;;
67965;SDS011;54749;47.850;9.002;2023-04-25T14:02:35;3.15;;;1.00;;
67965;SDS011;54749;47.850;9.002;2023-04-25T14:05:03;3.65;;;1.00;;
67965;SDS011;54749;47.850;9.002;2023-04-25T14:07:33;2.75;;;1.10;;
67965;SDS011;54749;47.850;9.002;2023-04-25T14:10:00;3.15;;;1.05;;
67965;SDS011;54749;47.850;9.002;2023-04-25T14:12:28;3.77;;;1.20;;
67965;SDS011;54749;47.850;9.002;2023-04-25T14:14:55;3.45;;;1.27;;
67965;SDS011;54749;47.850;9.002;2023-04-25T14:17:23;3.47;;;1.20;;
67965;SDS011;54749;47.850;9.002;2023-04-25T14:19:50;3.00;;;1.17;;
67965;SDS011;54749;47.850;9.002;2023-04-25T14:22:17;3.15;;;1.10;;
67965;SDS011;54749;47.850;9.002;2023-04-25T14:24:45;3.17;;;0.87;;
67965;SDS011;54749;47.850;9.002;2023-04-25T14:27:12;3.33;;;1.00;;
67965;SDS011;54749;47.850;9.002;2023-04-25T14:29:39;4.03;;;1.20;;
67965;SDS011;54749;47.850;9.002;2023-04-25T14:32:09;2.80;;;1.02;;
67965;SDS011;54749;47.850;9.002;2023-04-25T14:34:37;3.10;;;1.10;;
67965;SDS011;54749;47.850;9.002;2023-04-25T14:37:04;3.57;;;1.10;;
67965;SDS011;54749;47.850;9.002;2023-04-25T14:39:31;2.70;;;0.90;;
67965;SDS011;54749;47.850;9.002;2023-04-25T14:41:58;4.25;;;1.10;;
67965;SDS011;54749;47.850;9.002;2023-04-25T14:44:26;2.97;;;1.15;;
67965;SDS011;54749;47.850;9.002;2023-04-25T14:46:53;3.17;;;0.90;;
67965;SDS011;54749;47.850;9.002;2023-04-25T14:49:20;4.10;;;1.07;;
67965;SDS011;54749;47.850;9.002;2023-04-25T14:51:47;2.80;;;1.00;;
67965;SDS011;54749;47.850;9.002;2023-04-25T14:54:17;2.75;;;1.00;;
67965;SDS011;54749;47.850;9.002;2023-04-25T14:56:45;3.47;;;1.10;;
67965;SDS011;54749;47.850;9.002;2023-04-25T14:59:13;3.40;;;1.10;;
67965;SDS011;54749;47.850;9.002;2023-04-25T15:01:40;2.90;;;0.90;;
67965;SDS011;54749;47.850;9.002;2023-04-25T15:04:08;3.22;;;0.95;;
67965;SDS011;54749;47.850;9.002;2023-04-25T15:06:37;3.25;;;1.15;;
67965;SDS011;54749;47.850;9.002;2023-04-25T15:09:06;2.78;;;0.90;;
67965;SDS011;54749;47.850;9.002;2023-04-25T15:11:33;4.65;;;1.02;;
67965;SDS011;54749;47.850;9.002;2023-04-25T15:14:01;2.90;;;0.90;;
67965;SDS011;54749;47.850;9.002;2023-04-25T15:16:31;5.57;;;1.40;;